Time;durP1;ratioP1;P1;durP2;ratioP2;P2;SDS_P1;SDS_P2;PMS_P1;PMS_P2;Temp;Humidity;BMP_temperature;BMP_pressure;BME280_temperature;BME280_humidity;BME280_pressure;Samples;Min_cycle;Max_cycle;Signal;HPM_P1;HPM_P2
2022/10/19 00:01:29;;;;;;;5.00;4.00;;;;;;;12.03;98.83;99449.02;214571;1306;22694;-70
2022/10/19 00:06:33;;;;;;;6.10;4.20;;;;;;;11.99;98.87;99440.19;214525;1309;22591;-70
2022/10/19 00:11:38;;;;;;;7.00;4.80;;;;;;;11.92;98.96;99428.45;214712;1309;22472;-70
2022/10/19 00:16:42;;;;;;;5.80;4.60;;;;;;;11.88;98.97;99436.00;214515;1309;23748;-70
2022/10/19 00:21:44;;;;;;;5.10;3.80;;;;;;;11.85;99.15;99431.78;214625;1309;23352;-71
2022/10/19 00:26:46;;;;;;;9.10;5.90;;;;;;;11.78;99.17;99431.30;214422;1309;22475;-70
2022/10/19 00:31:51;;;;;;;7.10;5.50;;;;;;;11.76;99.30;99428.30;214726;1309;22488;-70
2022/10/19 00:36:53;;;;;;;12.20;7.20;;;;;;;11.75;99.34;99431.77;214619;1308;22452;-69
2022/10/19 00:41:55;;;;;;;12.40;7.30;;;;;;;11.74;99.35;99427.84;214577;1309;22475;-69
2022/10/19 00:47:01;;;;;;;12.30;7.50;;;;;;;11.73;99.56;99422.95;214591;1309;23941;-71
2022/10/19 00:52:09;;;;;;;13.40;7.70;;;;;;;11.72;99.80;99411.15;214663;1309;22479;-70
2022/10/19 00:57:12;;;;;;;14.30;8.70;;;;;;;11.73;99.96;99411.48;214416;1309;25072;-69
2022/10/19 01:02:14;;;;;;;14.40;8.40;;;;;;;11.73;99.97;99401.45;214819;1309;22467;-69
2022/10/19 01:07:18;;;;;;;14.50;8.80;;;;;;;11.72;100.00;99396.65;214497;1309;22476;-70
2022/10/19 01:12:26;;;;;;;19.50;9.70;;;;;;;11.73;100.00;99394.04;214557;1309;22486;-70
2022/10/19 01:18:05;;;;;;;14.80;8.20;;;;;;;11.74;100.00;99393.16;214611;1309;24443;-70
2022/10/19 01:23:19;;;;;;;25.60;11.10;;;;;;;11.77;100.00;99387.88;214685;1309;22502;-71
2022/10/19 01:28:57;;;;;;;21.50;11.00;;;;;;;11.81;100.00;99392.35;214658;1309;23279;-70
2022/10/19 01:34:15;;;;;;;20.70;10.70;;;;;;;11.81;100.00;99391.59;214626;1309;22483;-70
2022/10/19 01:39:47;;;;;;;23.10;10.70;;;;;;;11.84;100.00;99392.07;214780;1309;25280;-70
2022/10/19 01:45:02;;;;;;;15.40;9.40;;;;;;;11.85;100.00;99386.75;214593;1309;22622;-70
2022/10/19 01:50:14;;;;;;;19.90;10.30;;;;;;;11.84;100.00;99390.24;214606;1309;23750;-70
2022/10/19 01:55:18;;;;;;;19.90;11.30;;;;;;;11.81;100.00;99394.45;214670;1309;23773;-70
2022/10/19 02:00:22;;;;;;;16.30;10.90;;;;;;;11.78;100.00;99389.80;214605;1309;24427;-70
2022/10/19 02:05:29;;;;;;;17.90;10.00;;;;;;;11.77;100.00;99389.76;214506;1308;24444;-69
2022/10/19 02:10:34;;;;;;;20.00;11.30;;;;;;;11.79;100.00;99381.90;214818;1301;147584;-70
2022/10/19 02:15:39;;;;;;;18.00;11.50;;;;;;;11.80;100.00;99379.05;214656;1309;26501;-70
2022/10/19 02:20:41;;;;;;;21.20;12.40;;;;;;;11.81;100.00;99382.64;214548;1298;22465;-70
2022/10/19 02:25:43;;;;;;;21.20;12.10;;;;;;;11.83;100.00;99385.64;214519;1307;22520;-70
2022/10/19 02:30:46;;;;;;;19.30;12.40;;;;;;;11.83;100.00;99380.20;214743;1309;23931;-71
2022/10/19 02:35:48;;;;;;;19.80;11.00;;;;;;;11.82;100.00;99377.59;214810;1309;22524;-70
2022/10/19 02:41:08;;;;;;;21.90;11.90;;;;;;;11.76;100.00;99368.13;214682;1308;22474;-70
2022/10/19 02:46:31;;;;;;;19.90;11.40;;;;;;;11.66;100.00;99372.13;214614;1309;22464;-70
2022/10/19 02:51:36;;;;;;;20.00;11.70;;;;;;;11.53;100.00;99373.09;214531;1304;24086;-70
2022/10/19 02:56:37;;;;;;;20.80;12.00;;;;;;;11.40;100.00;99377.90;214565;1309;22633;-69
2022/10/19 03:01:39;;;;;;;20.90;12.00;;;;;;;11.31;100.00;99377.33;214656;1309;22595;-70
2022/10/19 03:06:41;;;;;;;16.00;9.90;;;;;;;11.23;100.00;99372.80;214720;1303;23739;-70
2022/10/19 03:11:43;;;;;;;20.50;12.50;;;;;;;11.17;100.00;99373.43;214639;1309;25268;-71
2022/10/19 03:16:45;;;;;;;22.90;12.90;;;;;;;11.09;100.00;99372.98;214589;1308;22646;-70
2022/10/19 03:21:47;;;;;;;19.00;11.50;;;;;;;11.03;100.00;99370.56;214404;1302;22495;-70
2022/10/19 03:26:49;;;;;;;20.40;12.40;;;;;;;10.96;100.00;99374.45;214639;1304;22528;-70
2022/10/19 03:31:50;;;;;;;20.00;11.60;;;;;;;10.94;100.00;99374.95;214582;1309;24320;-69
2022/10/19 03:36:52;;;;;;;21.40;11.90;;;;;;;10.90;100.00;99376.73;214566;1309;24370;-71
2022/10/19 03:41:54;;;;;;;23.40;12.10;;;;;;;10.86;100.00;99373.27;214769;1309;23911;-69
2022/10/19 03:46:56;;;;;;;21.00;11.20;;;;;;;10.85;100.00;99367.91;214673;1304;22483;-69
2022/10/19 03:51:58;;;;;;;20.40;12.10;;;;;;;10.83;100.00;99362.67;214619;1309;24254;-69
2022/10/19 03:56:59;;;;;;;25.50;13.20;;;;;;;10.79;100.00;99366.34;214660;1309;22482;-70
2022/10/19 04:02:02;;;;;;;22.50;12.90;;;;;;;10.74;100.00;99372.38;214581;1309;22605;-72
2022/10/19 04:07:04;;;;;;;21.00;11.80;;;;;;;10.68;100.00;99368.69;214670;1307;22626;-70
2022/10/19 04:12:06;;;;;;;20.80;12.10;;;;;;;10.62;100.00;99373.31;214596;1309;23750;-70
2022/10/19 04:17:08;;;;;;;21.70;12.00;;;;;;;10.56;100.00;99373.66;214677;1309;22557;-68
2022/10/19 04:22:10;;;;;;;21.30;12.00;;;;;;;10.48;100.00;99370.63;214676;1304;22474;-70
2022/10/19 04:27:12;;;;;;;23.30;13.80;;;;;;;10.39;100.00;99375.05;214748;1309;22474;-70
2022/10/19 04:32:14;;;;;;;26.30;14.00;;;;;;;10.34;100.00;99373.39;214821;1295;22548;-70
2022/10/19 04:37:15;;;;;;;23.90;13.60;;;;;;;10.30;100.00;99370.76;214740;1309;22539;-70
2022/10/19 04:42:17;;;;;;;22.70;12.20;;;;;;;10.23;100.00;99376.02;214727;1309;22492;-70
2022/10/19 04:47:19;;;;;;;25.10;12.80;;;;;;;10.17;100.00;99371.06;214614;1309;23882;-70
2022/10/19 04:52:21;;;;;;;28.10;12.60;;;;;;;10.10;100.00;99369.04;214710;1309;22599;-69
2022/10/19 04:57:22;;;;;;;21.60;11.60;;;;;;;10.02;100.00;99366.41;214545;1309;25340;-70
2022/10/19 05:02:24;;;;;;;21.50;12.50;;;;;;;9.90;100.00;99358.20;214593;1309;25244;-70
2022/10/19 05:07:26;;;;;;;21.00;12.50;;;;;;;9.78;100.00;99353.59;214677;1309;23745;-72
2022/10/19 05:12:28;;;;;;;24.10;13.10;;;;;;;9.65;100.00;99352.91;214588;1309;22496;-71
2022/10/19 05:17:32;;;;;;;23.00;12.00;;;;;;;9.54;100.00;99344.02;214681;1309;24246;-70
2022/10/19 05:22:34;;;;;;;25.90;12.60;;;;;;;9.44;100.00;99336.32;214835;1309;23096;-69
2022/10/19 05:27:36;;;;;;;21.20;11.80;;;;;;;9.37;100.00;99335.98;214866;1309;22539;-70
2022/10/19 05:32:38;;;;;;;21.40;12.70;;;;;;;9.33;100.00;99340.06;214796;1309;22456;-70
2022/10/19 05:37:39;;;;;;;25.10;12.00;;;;;;;9.34;100.00;99347.39;214584;1309;22518;-70
2022/10/19 05:42:41;;;;;;;22.20;12.60;;;;;;;9.39;100.00;99341.08;214989;1281;22520;-70
2022/10/19 05:47:43;;;;;;;20.30;11.50;;;;;;;9.49;100.00;99351.19;214828;1288;22776;-70
2022/10/19 05:52:45;;;;;;;19.20;10.80;;;;;;;9.58;100.00;99354.03;215016;1309;23845;-68
2022/10/19 05:57:46;;;;;;;25.40;13.40;;;;;;;9.66;100.00;99353.39;215346;1281;24316;-69
2022/10/19 06:02:48;;;;;;;23.50;13.20;;;;;;;9.72;100.00;99357.98;215304;1284;22472;-70
2022/10/19 06:07:50;;;;;;;24.70;11.90;;;;;;;9.79;100.00;99366.70;215650;1283;22484;-69
2022/10/19 06:12:52;;;;;;;28.30;13.20;;;;;;;9.83;100.00;99373.19;215346;1284;22493;-69
2022/10/19 06:17:53;;;;;;;27.00;12.50;;;;;;;9.88;100.00;99381.52;215224;1278;22516;-67
2022/10/19 06:22:55;;;;;;;26.30;13.70;;;;;;;9.99;100.00;99387.95;215334;1281;22517;-69
2022/10/19 06:27:58;;;;;;;24.10;12.70;;;;;;;10.18;100.00;99387.17;215197;1278;22534;-67
2022/10/19 06:33:00;;;;;;;27.20;14.00;;;;;;;10.38;100.00;99388.28;215218;1284;22695;-68
2022/10/19 06:38:02;;;;;;;29.10;14.60;;;;;;;10.56;100.00;99392.03;215080;1278;22470;-68
2022/10/19 06:43:04;;;;;;;24.80;12.70;;;;;;;10.69;100.00;99397.77;217616;1287;100070;-69
2022/10/19 06:48:06;;;;;;;28.40;13.30;;;;;;;10.78;100.00;99402.63;215170;1283;100201;-67
2022/10/19 06:53:08;;;;;;;27.90;14.60;;;;;;;10.90;100.00;99407.02;214957;1288;100175;-72
2022/10/19 06:58:10;;;;;;;24.10;12.50;;;;;;;10.97;100.00;99414.93;215043;1281;100142;-68
2022/10/19 07:03:12;;;;;;;23.30;13.10;;;;;;;11.02;100.00;99415.61;215067;1284;25531;-70
2022/10/19 07:08:14;;;;;;;26.70;13.90;;;;;;;11.07;100.00;99422.23;215073;1283;99917;-71
2022/10/19 07:13:16;;;;;;;21.30;12.00;;;;;;;11.12;100.00;99423.33;214947;1278;100084;-68
2022/10/19 07:18:17;;;;;;;23.70;13.00;;;;;;;11.18;100.00;99427.70;215101;1283;100217;-69
2022/10/19 07:23:19;;;;;;;24.60;12.60;;;;;;;11.26;100.00;99439.73;215069;1283;100233;-69
2022/10/19 07:28:21;;;;;;;24.40;12.30;;;;;;;11.34;100.00;99438.67;215143;1277;100204;-68
2022/10/19 07:33:23;;;;;;;20.00;10.50;;;;;;;11.36;100.00;99429.61;215104;1284;22612;-69
2022/10/19 07:38:24;;;;;;;20.90;11.90;;;;;;;11.48;100.00;99427.21;214893;1283;100086;-70
2022/10/19 07:43:26;;;;;;;18.70;11.10;;;;;;;11.64;100.00;99424.42;215717;1284;100078;-68
2022/10/19 07:48:28;;;;;;;16.30;9.30;;;;;;;11.68;100.00;99431.48;215369;1285;100438;-69
2022/10/19 07:53:30;;;;;;;15.30;8.50;;;;;;;11.62;100.00;99435.98;215147;1283;100546;-70
2022/10/19 07:58:33;;;;;;;7.80;4.40;;;;;;;11.54;100.00;99434.59;215064;1284;100917;-69
2022/10/19 08:03:36;;;;;;;4.90;4.20;;;;;;;11.55;100.00;99433.98;215134;1284;24308;-68
2022/10/19 08:08:57;;;;;;;10.00;4.40;;;;;;;11.50;99.34;99436.11;215124;1290;22476;-69
2022/10/19 08:14:01;;;;;;;8.00;4.10;;;;;;;11.58;98.97;99441.95;215077;1283;100287;-70
2022/10/19 08:19:06;;;;;;;13.60;4.20;;;;;;;11.66;98.86;99444.65;215504;1310;100491;-68
2022/10/19 08:24:11;;;;;;;5.00;2.80;;;;;;;11.63;97.94;99444.51;214954;1309;100361;-71
2022/10/19 08:29:18;;;;;;;4.40;2.80;;;;;;;11.55;96.86;99435.49;215270;1285;99660;-68
2022/10/19 08:34:20;;;;;;;7.60;2.50;;;;;;;11.63;96.68;99433.45;215017;1299;99839;-69
2022/10/19 08:39:22;;;;;;;6.00;2.50;;;;;;;11.83;95.78;99437.23;215271;1305;22476;-68
2022/10/19 08:44:29;;;;;;;3.30;2.10;;;;;;;12.03;95.49;99442.02;215845;1296;99403;-69
2022/10/19 08:49:31;;;;;;;5.20;2.10;;;;;;;12.22;95.18;99442.35;215359;1295;99826;-69
2022/10/19 08:54:47;;;;;;;3.30;1.90;;;;;;;12.25;94.09;99455.13;215089;1309;99415;-69
2022/10/19 08:59:58;;;;;;;4.30;1.80;;;;;;;12.24;93.55;99449.59;214954;1283;99925;-71
2022/10/19 09:05:15;;;;;;;4.70;2.00;;;;;;;12.34;93.28;99450.84;215114;1284;101001;-70
2022/10/19 09:10:23;;;;;;;9.50;2.60;;;;;;;12.35;92.44;99454.59;215058;1283;100411;-75
2022/10/19 09:15:40;;;;;;;3.20;1.70;;;;;;;12.26;91.62;99458.17;215122;1284;22590;-69
2022/10/19 09:20:46;;;;;;;3.90;1.80;;;;;;;12.21;91.21;99458.80;215234;1283;99892;-69
2022/10/19 09:25:50;;;;;;;4.30;1.60;;;;;;;12.08;90.90;99462.03;215255;1284;99876;-69
2022/10/19 09:30:55;;;;;;;3.30;1.70;;;;;;;12.01;90.74;99467.30;215422;1284;99579;-70
2022/10/19 09:35:59;;;;;;;5.40;2.10;;;;;;;12.01;90.77;99466.59;215004;1286;99556;-70
2022/10/19 09:41:16;;;;;;;4.40;1.40;;;;;;;12.01;90.12;99474.54;215107;1298;99446;-71
2022/10/19 09:46:51;;;;;;;3.70;1.80;;;;;;;12.02;90.25;99477.59;215567;1299;99450;-71
2022/10/19 09:51:54;;;;;;;4.60;1.50;;;;;;;12.06;90.59;99481.16;214856;1298;22467;-71
2022/10/19 09:56:56;;;;;;;3.70;1.50;;;;;;;12.04;90.05;99482.41;215162;1309;99102;-70
2022/10/19 10:02:11;;;;;;;2.70;1.50;;;;;;;11.99;89.25;99473.75;215252;1284;99243;-72
2022/10/19 10:07:16;;;;;;;4.30;1.40;;;;;;;12.00;88.69;99477.08;215189;1283;99629;-71
2022/10/19 10:12:18;;;;;;;4.30;1.90;;;;;;;11.98;88.19;99475.11;214952;1310;99442;-72
2022/10/19 10:17:25;;;;;;;6.10;1.50;;;;;;;12.06;88.29;99471.55;215229;1301;99505;-71
2022/10/19 10:22:31;;;;;;;1.50;1.40;;;;;;;12.09;88.03;99464.50;214972;1285;99592;-70
2022/10/19 10:27:36;;;;;;;2.90;1.60;;;;;;;12.07;87.87;99469.07;215073;1309;26507;-70
2022/10/19 10:32:52;;;;;;;2.30;1.30;;;;;;;12.02;87.73;99463.31;215088;1301;99372;-74
2022/10/19 10:38:12;;;;;;;3.10;1.40;;;;;;;12.02;87.30;99460.80;214993;1309;99416;-69
2022/10/19 10:43:17;;;;;;;2.80;2.10;;;;;;;12.05;86.97;99470.80;215344;1309;99762;-71
2022/10/19 10:48:30;;;;;;;5.50;1.80;;;;;;;12.09;87.06;99470.30;215046;1300;99546;-71
2022/10/19 10:53:39;;;;;;;5.70;2.40;;;;;;;12.19;86.96;99468.88;215217;1295;99529;-70
2022/10/19 10:58:50;;;;;;;6.10;2.10;;;;;;;12.24;86.81;99462.00;215163;1309;99487;-71
2022/10/19 11:04:21;;;;;;;7.90;2.60;;;;;;;12.27;86.85;99457.41;215243;1295;22480;-71
2022/10/19 11:09:37;;;;;;;4.20;2.00;;;;;;;12.26;86.75;99454.41;215156;1309;22501;-70
2022/10/19 11:14:51;;;;;;;3.90;1.60;;;;;;;12.26;86.82;99455.70;215258;1295;99313;-71
2022/10/19 11:19:53;;;;;;;5.50;1.60;;;;;;;12.39;87.24;99452.03;215121;1283;99538;-69
2022/10/19 11:25:21;;;;;;;2.50;1.80;;;;;;;12.51;87.08;99450.36;215130;1288;99397;-71
2022/10/19 11:30:25;;;;;;;3.10;1.60;;;;;;;12.64;85.93;99457.91;215036;1309;99486;-70
2022/10/19 11:35:35;;;;;;;2.20;1.20;;;;;;;12.71;85.83;99453.10;215247;1309;99424;-71
2022/10/19 11:40:45;;;;;;;2.20;1.20;;;;;;;12.74;85.73;99440.82;215118;1286;99619;-71
2022/10/19 11:46:10;;;;;;;;;;;;;;;12.78;86.02;99433.13;215789;1283;99644;-71
2022/10/19 11:51:24;;;;;;;3.40;1.30;;;;;;;12.85;86.04;99428.01;215146;1288;25284;-70
2022/10/19 11:56:27;;;;;;;2.90;1.30;;;;;;;12.77;85.10;99429.75;215039;1308;99477;-71
2022/10/19 12:01:45;;;;;;;6.70;1.20;;;;;;;12.63;83.79;99430.77;215299;1284;99279;-70
2022/10/19 12:07:08;;;;;;;5.10;1.60;;;;;;;12.50;84.49;99429.40;215294;1278;99423;-70
2022/10/19 12:12:24;;;;;;;1.50;1.10;;;;;;;12.38;84.19;99429.21;215089;1303;100044;-70
2022/10/19 12:17:30;;;;;;;2.90;1.90;;;;;;;12.26;84.14;99426.85;214962;1309;100479;-70
2022/10/19 12:22:36;;;;;;;3.40;1.40;;;;;;;12.21;84.38;99419.21;214941;1285;99650;-69
2022/10/19 12:27:40;;;;;;;3.30;1.50;;;;;;;12.18;84.28;99421.34;215144;1278;24256;-72
2022/10/19 12:33:01;;;;;;;3.70;1.70;;;;;;;12.17;84.04;99421.56;214944;1301;99349;-70
2022/10/19 12:38:18;;;;;;;4.50;1.70;;;;;;;12.24;84.34;99417.40;214941;1310;100866;-71
2022/10/19 12:43:34;;;;;;;3.80;1.60;;;;;;;12.27;85.07;99416.20;215733;1304;100320;-71
2022/10/19 12:48:38;;;;;;;3.80;1.40;;;;;;;12.24;84.54;99416.19;215416;1285;99688;-71
2022/10/19 12:53:44;;;;;;;3.60;1.50;;;;;;;12.17;84.86;99418.23;214999;1283;99638;-70
2022/10/19 12:58:51;;;;;;;3.90;1.30;;;;;;;12.12;84.65;99416.02;214836;1310;99484;-74
2022/10/19 13:04:09;;;;;;;3.80;1.40;;;;;;;12.10;84.95;99415.61;214929;1295;22546;-69
2022/10/19 13:09:35;;;;;;;1.90;1.30;;;;;;;12.10;84.91;99419.42;215214;1295;24241;-71
2022/10/19 13:14:52;;;;;;;2.70;1.20;;;;;;;12.08;84.94;99417.23;215100;1309;100006;-71
2022/10/19 13:20:14;;;;;;;1.10;1.00;;;;;;;12.06;84.87;99415.90;214947;1288;99606;-70
2022/10/19 13:25:22;;;;;;;4.00;1.40;;;;;;;12.04;84.19;99423.89;215116;1288;100079;-70
2022/10/19 13:30:45;;;;;;;6.00;1.70;;;;;;;12.02;84.88;99427.07;215148;1285;100246;-71
2022/10/19 13:35:48;;;;;;;2.70;1.30;;;;;;;12.03;84.76;99427.00;215331;1284;100085;-72
2022/10/19 13:40:49;;;;;;;2.10;1.20;;;;;;;11.99;85.10;99426.92;215032;1277;100473;-73
2022/10/19 13:46:00;;;;;;;1.50;1.20;;;;;;;11.93;85.09;99433.63;215809;1277;22624;-69
2022/10/19 13:51:41;;;;;;;3.00;1.20;;;;;;;11.87;85.47;99434.20;214903;1283;99377;-68
2022/10/19 13:57:05;;;;;;;1.50;1.00;;;;;;;11.77;85.33;99430.13;215241;1285;99424;-69
2022/10/19 14:02:25;;;;;;;3.30;1.10;;;;;;;11.74;85.63;99424.78;214802;1277;99303;-70
2022/10/19 14:08:03;;;;;;;2.20;0.70;;;;;;;11.73;85.64;99436.54;214477;1288;125173;-71
2022/10/19 14:13:13;;;;;;;0.90;0.80;;;;;;;11.72;85.39;99429.30;214580;1310;22602;-72
2022/10/19 14:18:30;;;;;;;1.50;0.70;;;;;;;11.74;85.27;99435.79;214539;1310;22663;-70
2022/10/19 14:23:35;;;;;;;4.00;0.80;;;;;;;11.73;85.29;99432.20;214717;1310;22768;-71
2022/10/19 14:28:39;;;;;;;1.60;0.70;;;;;;;11.69;85.61;99433.57;214501;1310;24380;-70
2022/10/19 14:33:45;;;;;;;2.00;0.80;;;;;;;11.64;85.52;99432.27;214479;1306;22532;-70
2022/10/19 14:38:52;;;;;;;1.40;0.70;;;;;;;11.60;85.57;99431.64;214612;1310;24155;-70
2022/10/19 14:43:55;;;;;;;5.70;1.10;;;;;;;11.52;85.33;99429.71;214444;1310;24477;-72
2022/10/19 14:49:00;;;;;;;2.20;0.80;;;;;;;11.48;85.38;99436.98;214693;1309;25109;-70
2022/10/19 14:54:05;;;;;;;3.30;1.00;;;;;;;11.44;85.43;99432.65;214619;1310;24258;-70
2022/10/19 14:59:15;;;;;;;4.00;1.10;;;;;;;11.39;85.86;99428.61;214510;1303;22583;-70
2022/10/19 15:04:22;;;;;;;;;;;;;;;11.33;86.04;99433.79;214565;1310;25381;-70
2022/10/19 15:09:28;;;;;;;2.40;1.60;;;;;;;11.28;86.26;99430.60;214361;1310;22717;-70
2022/10/19 15:14:48;;;;;;;2.60;1.10;;;;;;;11.20;86.02;99433.05;214628;1309;22528;-72
2022/10/19 15:19:50;;;;;;;4.50;1.10;;;;;;;11.05;85.50;99433.83;214580;1304;22936;-69
2022/10/19 15:25:07;;;;;;;3.40;1.40;;;;;;;10.86;86.00;99426.93;214642;1310;24341;-70
2022/10/19 15:30:23;;;;;;;4.20;1.40;;;;;;;10.67;86.06;99424.73;214418;1310;24995;-70
2022/10/19 15:35:28;;;;;;;4.40;1.50;;;;;;;10.50;86.29;99445.46;214486;1310;24287;-70
2022/10/19 15:40:33;;;;;;;3.60;1.80;;;;;;;10.34;86.63;99446.87;214610;1310;22523;-70
2022/10/19 15:45:37;;;;;;;4.60;2.10;;;;;;;10.17;86.61;99446.93;214618;1310;22616;-71
2022/10/19 15:50:44;;;;;;;5.00;2.10;;;;;;;10.03;86.84;99454.52;214527;1310;22600;-70
2022/10/19 15:55:46;;;;;;;6.20;3.10;;;;;;;9.93;86.73;99457.10;214775;1310;22473;-70
2022/10/19 16:00:48;;;;;;;5.70;3.00;;;;;;;9.88;86.97;99452.50;214469;1310;22516;-71
2022/10/19 16:05:50;;;;;;;4.40;2.10;;;;;;;9.87;86.83;99458.55;214683;1310;22591;-70
2022/10/19 16:10:51;;;;;;;7.70;2.10;;;;;;;9.87;87.26;99462.45;214580;1309;24396;-71
2022/10/19 16:16:04;;;;;;;4.40;2.20;;;;;;;9.88;87.45;99468.08;214652;1310;23332;-68
2022/10/19 16:21:13;;;;;;;3.10;2.20;;;;;;;9.89;87.32;99477.16;214531;1310;22484;-70
2022/10/19 16:26:17;;;;;;;3.60;2.10;;;;;;;9.90;87.57;99486.59;214638;1310;25331;-72
2022/10/19 16:31:19;;;;;;;4.30;3.20;;;;;;;9.91;87.80;99490.17;214523;1310;22558;-72
2022/10/19 16:36:20;;;;;;;5.00;2.20;;;;;;;9.90;87.92;99490.28;214462;1310;22915;-70
2022/10/19 16:41:22;;;;;;;3.60;2.00;;;;;;;9.90;88.20;99490.81;214512;1310;22967;-70
2022/10/19 16:46:25;;;;;;;5.20;2.40;;;;;;;9.89;88.39;99500.77;214426;1310;22492;-70
2022/10/19 16:51:38;;;;;;;4.00;2.50;;;;;;;9.88;88.51;99504.58;214621;1304;22579;-71
2022/10/19 16:56:46;;;;;;;4.80;2.60;;;;;;;9.88;88.33;99504.46;214508;1310;25234;-71
2022/10/19 17:01:48;;;;;;;5.90;2.70;;;;;;;9.87;88.34;99510.03;214637;1310;22495;-70
2022/10/19 17:06:49;;;;;;;4.50;2.60;;;;;;;9.86;88.54;99512.02;214536;1310;22513;-71
2022/10/19 17:11:51;;;;;;;4.80;2.70;;;;;;;9.86;88.59;99517.14;214470;1310;25461;-70
2022/10/19 17:16:53;;;;;;;5.90;3.00;;;;;;;9.83;88.67;99524.85;214633;1310;24298;-70
2022/10/19 17:21:56;;;;;;;6.90;3.00;;;;;;;9.80;88.69;99528.58;214465;1310;23765;-70
2022/10/19 17:27:02;;;;;;;4.70;2.90;;;;;;;9.78;88.93;99529.50;214452;1304;22540;-70
2022/10/19 17:32:04;;;;;;;3.70;2.70;;;;;;;9.75;88.83;99529.98;214648;1310;22939;-70
2022/10/19 17:37:05;;;;;;;5.90;3.30;;;;;;;9.73;89.07;99537.89;214512;1310;24267;-70
2022/10/19 17:42:07;;;;;;;8.10;3.30;;;;;;;9.73;89.22;99542.60;214376;1310;22487;-71
2022/10/19 17:47:09;;;;;;;7.60;3.50;;;;;;;9.73;89.21;99545.48;214519;1310;22613;-72
2022/10/19 17:52:11;;;;;;;8.60;4.20;;;;;;;9.73;89.10;99549.66;214665;1304;22592;-70
2022/10/19 17:57:13;;;;;;;6.00;3.20;;;;;;;9.74;89.26;99557.48;214484;1310;22681;-71
2022/10/19 18:02:14;;;;;;;8.20;4.00;;;;;;;9.73;89.35;99554.85;214370;1310;25268;-69
2022/10/19 18:07:17;;;;;;;6.90;3.10;;;;;;;9.73;89.48;99555.81;214536;1304;22481;-70
2022/10/19 18:12:19;;;;;;;7.00;3.60;;;;;;;9.72;89.33;99564.96;214484;1310;22481;-71
2022/10/19 18:17:21;;;;;;;6.00;3.60;;;;;;;9.69;89.54;99569.08;214650;1310;22479;-73
2022/10/19 18:22:28;;;;;;;5.40;3.20;;;;;;;9.65;89.68;99572.11;214448;1310;22513;-72
2022/10/19 18:27:30;;;;;;;7.70;3.60;;;;;;;9.62;89.83;99571.23;214446;1310;25273;-73
2022/10/19 18:32:32;;;;;;;4.50;2.80;;;;;;;9.61;89.93;99575.24;214599;1310;22496;-72
2022/10/19 18:37:34;;;;;;;4.50;3.10;;;;;;;9.57;90.04;99575.50;214645;1310;25275;-73
2022/10/19 18:42:36;;;;;;;8.40;3.50;;;;;;;9.54;90.13;99568.38;214393;1310;24478;-72
2022/10/19 18:47:38;;;;;;;6.10;2.90;;;;;;;9.50;90.17;99569.91;214532;1310;22473;-72
2022/10/19 18:52:41;;;;;;;6.40;3.50;;;;;;;9.44;90.21;99571.44;214400;1310;22928;-72
2022/10/19 18:57:43;;;;;;;6.50;3.20;;;;;;;9.37;90.32;99580.98;214554;1310;22511;-72
2022/10/19 19:02:52;;;;;;;7.10;3.70;;;;;;;9.29;90.33;99583.72;214548;1310;25362;-72
2022/10/19 19:07:54;;;;;;;6.00;3.30;;;;;;;9.17;90.42;99584.89;214436;1309;23775;-73
2022/10/19 19:12:56;;;;;;;9.30;3.70;;;;;;;9.08;90.63;99586.96;214556;1301;22477;-72
2022/10/19 19:17:58;;;;;;;5.30;3.40;;;;;;;9.01;90.59;99592.71;214445;1310;23837;-72
2022/10/19 19:23:00;;;;;;;4.60;3.40;;;;;;;8.94;90.65;99597.20;214432;1310;23789;-72
2022/10/19 19:28:02;;;;;;;6.70;3.20;;;;;;;8.84;90.76;99600.55;214524;1310;22512;-72
2022/10/19 19:33:05;;;;;;;5.30;3.80;;;;;;;8.80;90.92;99605.02;214396;1308;22496;-73
2022/10/19 19:38:07;;;;;;;6.50;4.10;;;;;;;8.78;91.09;99605.91;214437;1299;24275;-73
2022/10/19 19:43:10;;;;;;;7.80;4.00;;;;;;;8.78;91.25;99607.14;214589;1302;25356;-72
2022/10/19 19:48:11;;;;;;;8.40;3.70;;;;;;;8.78;91.24;99613.66;214625;1310;25381;-74
2022/10/19 19:53:13;;;;;;;11.20;4.10;;;;;;;8.78;91.32;99615.11;214499;1310;24871;-73
2022/10/19 19:58:15;;;;;;;5.60;4.00;;;;;;;8.78;91.39;99617.50;214427;1310;25240;-73
2022/10/19 20:03:17;;;;;;;8.00;3.90;;;;;;;8.77;91.45;99622.40;214488;1306;22689;-72
2022/10/19 20:08:19;;;;;;;9.60;4.20;;;;;;;8.74;91.49;99622.65;214414;1310;22496;-72
2022/10/19 20:13:20;;;;;;;8.10;4.40;;;;;;;8.69;91.40;99629.45;214502;1310;22596;-73
2022/10/19 20:18:22;;;;;;;6.20;3.70;;;;;;;8.60;91.52;99631.40;214459;1310;25423;-71
2022/10/19 20:23:27;;;;;;;13.90;4.90;;;;;;;8.46;91.64;99630.64;214405;1310;25276;-72
2022/10/19 20:28:34;;;;;;;6.40;4.40;;;;;;;8.32;91.72;99633.58;214494;1310;25434;-73
2022/10/19 20:33:38;;;;;;;12.50;7.10;;;;;;;8.17;91.92;99632.58;214645;1310;25372;-72
2022/10/19 20:38:45;;;;;;;16.90;8.70;;;;;;;8.04;92.12;99638.36;214471;1310;22521;-72
2022/10/19 20:43:47;;;;;;;13.40;7.10;;;;;;;7.93;92.18;99640.48;214623;1310;25390;-73
2022/10/19 20:48:51;;;;;;;14.10;6.40;;;;;;;7.80;92.36;99643.04;214763;1310;23705;-72
2022/10/19 20:53:55;;;;;;;8.00;4.60;;;;;;;7.67;92.40;99648.07;214506;1309;22602;-71
2022/10/19 20:59:03;;;;;;;8.20;4.70;;;;;;;7.53;92.59;99649.70;214743;1309;24355;-72
2022/10/19 21:04:07;;;;;;;9.00;4.80;;;;;;;7.40;92.53;99645.30;214732;1304;22751;-72
2022/10/19 21:09:16;;;;;;;8.90;4.90;;;;;;;7.26;92.50;99648.95;214469;1310;25325;-71
2022/10/19 21:14:21;;;;;;;6.40;4.00;;;;;;;7.13;92.68;99650.84;214510;1304;24246;-72
2022/10/19 21:19:29;;;;;;;11.00;5.10;;;;;;;7.01;92.95;99650.72;214534;1310;25270;-72
2022/10/19 21:24:34;;;;;;;8.80;5.10;;;;;;;6.92;93.16;99649.14;214503;1310;24476;-72
2022/10/19 21:29:36;;;;;;;11.90;5.50;;;;;;;6.83;93.38;99652.41;214481;1310;25330;-72
2022/10/19 21:34:38;;;;;;;12.40;7.00;;;;;;;6.75;93.36;99645.94;214526;1310;25469;-72
2022/10/19 21:39:40;;;;;;;12.30;7.70;;;;;;;6.67;93.47;99650.02;214481;1310;26549;-73
2022/10/19 21:44:41;;;;;;;13.50;7.20;;;;;;;6.59;93.62;99649.51;214472;1310;25857;-72
2022/10/19 21:49:43;;;;;;;9.80;6.30;;;;;;;6.49;93.96;99652.55;214644;1310;26139;-72
2022/10/19 21:54:45;;;;;;;13.80;7.00;;;;;;;6.41;93.96;99655.48;214656;1310;22546;-72
2022/10/19 21:59:47;;;;;;;10.80;6.10;;;;;;;6.31;94.04;99657.96;214516;1310;22511;-73
2022/10/19 22:04:49;;;;;;;11.80;5.70;;;;;;;6.20;94.20;99660.59;214661;1310;25650;-72
2022/10/19 22:09:51;;;;;;;11.20;5.50;;;;;;;6.10;94.07;99665.92;214477;1298;22599;-72
2022/10/19 22:14:53;;;;;;;8.20;4.80;;;;;;;6.00;94.58;99665.84;214479;1310;22947;-73
2022/10/19 22:19:54;;;;;;;7.30;4.50;;;;;;;5.91;94.34;99663.13;214519;1308;23825;-73
2022/10/19 22:24:56;;;;;;;7.50;4.40;;;;;;;5.79;94.75;99659.77;214442;1311;24248;-72
2022/10/19 22:29:58;;;;;;;8.80;4.60;;;;;;;5.66;94.53;99659.56;214441;1312;22630;-72
2022/10/19 22:35:00;;;;;;;12.10;5.90;;;;;;;5.54;94.97;99655.25;214445;1311;22555;-73
2022/10/19 22:40:01;;;;;;;9.90;5.90;;;;;;;5.44;94.89;99659.34;214557;1311;22973;-72
2022/10/19 22:45:05;;;;;;;11.50;6.30;;;;;;;5.39;95.15;99655.41;214599;1312;22481;-72
2022/10/19 22:50:10;;;;;;;10.40;6.00;;;;;;;5.38;95.39;99657.55;214532;1310;25900;-72
2022/10/19 22:55:12;;;;;;;8.20;5.40;;;;;;;5.37;95.55;99658.23;214466;1311;24240;-71
2022/10/19 23:00:14;;;;;;;12.30;6.80;;;;;;;5.34;95.81;99659.54;214521;1310;22465;-72
2022/10/19 23:05:16;;;;;;;14.50;6.80;;;;;;;5.29;95.70;99667.52;214410;1298;22724;-72
2022/10/19 23:10:18;;;;;;;13.90;7.70;;;;;;;5.25;95.75;99672.29;214519;1312;27253;-71
2022/10/19 23:15:20;;;;;;;23.10;11.70;;;;;;;5.19;95.79;99673.28;214465;1311;22483;-72
2022/10/19 23:20:22;;;;;;;24.60;13.40;;;;;;;5.13;96.17;99677.25;214476;1310;22946;-72
2022/10/19 23:25:24;;;;;;;18.90;10.60;;;;;;;5.08;96.24;99678.83;214450;1312;26382;-72
2022/10/19 23:30:25;;;;;;;20.90;10.80;;;;;;;5.01;96.27;99678.92;214526;1311;24263;-72